Time,TemperatureF,DewpointF,PressureIn,WindDirection,WindDirectionDegrees,WindSpeedMPH,WindSpeedGustMPH,Humidity,HourlyPrecipIn,Conditions,Clouds,dailyrainin,SoftwareType,DateUTC
2013-04-26 00:01:00,39.1,35.3,30.35,South,183,0.0,0.0,86,0.00,,,0.00,WeatherCatV1.15B25,2013-04-26 04:01:00,
2013-04-26 00:03:00,39.1,35.6,30.34,South,183,0.0,0.0,87,0.00,,,0.00,WeatherCatV1.15B25,2013-04-26 04:03:00,
2013-04-26 00:04:00,39.1,35.6,30.34,South,183,0.0,0.0,87,0.00,,,0.00,WeatherCatV1.15B25,2013-04-26 04:04:00,
2013-04-26 00:05:00,39.2,35.7,30.34,South,183,0.0,0.0,87,0.00,,,0.00,WeatherCatV1.15B25,2013-04-26 04:05:00,
2013-04-26 00:10:00,39.2,35.7,30.34,South,183,0.0,0.0,87,0.00,,,0.00,WeatherCatV1.15B25,2013-04-26 04:10:00,
2013-04-26 00:14:00,39.2,35.7,30.34,South,183,0.0,0.0,87,0.00,,,0.00,WeatherCatV1.15B25,2013-04-26 04:14:00,
2013-04-26 00:19:00,39.1,35.6,30.34,South,183,0.0,0.0,87,0.00,,,0.00,WeatherCatV1.15B25,2013-04-26 04:19:00,
2013-04-26 00:24:00,38.9,35.1,30.34,South,183,0.0,0.0,86,0.00,,,0.00,WeatherCatV1.15B25,2013-04-26 04:24:00,
2013-04-26 00:29:00,38.8,35.0,30.35,South,183,0.0,0.0,86,0.00,,,0.00,WeatherCatV1.15B25,2013-04-26 04:29:00,
2013-04-26 00:34:00,38.5,35.0,30.35,South,183,0.0,0.0,87,0.00,,,0.00,WeatherCatV1.15B25,2013-04-26 04:34:00,
2013-04-26 00:39:00,38.4,34.9,30.35,South,183,0.0,0.0,87,0.00,,,0.00,WeatherCatV1.15B25,2013-04-26 04:39:00,
2013-04-26 00:44:00,38.2,34.7,30.35,South,183,0.0,0.0,87,0.00,,,0.00,WeatherCatV1.15B25,2013-04-26 04:44:00,
2013-04-26 00:49:00,38.1,34.6,30.35,South,183,0.0,0.0,87,0.00,,,0.00,WeatherCatV1.15B25,2013-04-26 04:49:00,
2013-04-26 00:54:00,37.9,34.4,30.35,South,183,0.0,0.0,87,0.00,,,0.00,WeatherCatV1.15B25,2013-04-26 04:54:00,
2013-04-26 00:59:00,37.8,34.3,30.36,South,183,0.0,0.0,87,0.00,,,0.00,WeatherCatV1.15B25,2013-04-26 04:59:00,
2013-04-26 01:04:00,37.6,34.1,30.36,South,183,0.0,0.0,87,0.00,,,0.00,WeatherCatV1.15B25,2013-04-26 05:04:00,
2013-04-26 01:09:00,37.5,34.0,30.36,South,183,0.0,0.0,87,0.00,,,0.00,WeatherCatV1.15B25,2013-04-26 05:09:00,
2013-04-26 01:14:00,37.4,33.9,30.36,South,183,0.0,0.0,87,0.00,,,0.00,WeatherCatV1.15B25,2013-04-26 05:14:00,
2013-04-26 01:19:00,37.2,33.7,30.36,South,183,0.0,0.0,87,0.00,,,0.00,WeatherCatV1.15B25,2013-04-26 05:19:00,
2013-04-26 01:24:00,37.1,33.6,30.36,South,183,0.0,0.0,87,0.00,,,0.00,WeatherCatV1.15B25,2013-04-26 05:24:00,
2013-04-26 01:29:00,37.1,33.6,30.36,South,183,0.0,0.0,87,0.00,,,0.00,WeatherCatV1.15B25,2013-04-26 05:29:00,
2013-04-26 01:34:00,37.1,33.6,30.36,South,183,0.0,0.0,87,0.00,,,0.00,WeatherCatV1.15B25,2013-04-26 05:34:00,
2013-04-26 01:39:00,37.0,33.5,30.37,South,183,0.0,0.0,87,0.00,,,0.00,WeatherCatV1.15B25,2013-04-26 05:39:00,
2013-04-26 01:44:00,36.9,33.4,30.37,South,183,0.0,0.0,87,0.00,,,0.00,WeatherCatV1.15B25,2013-04-26 05:44:00,
2013-04-26 01:49:00,36.9,33.4,30.37,South,183,0.0,0.0,87,0.00,,,0.00,WeatherCatV1.15B25,2013-04-26 05:49:00,
2013-04-26 01:54:00,36.7,33.5,30.37,South,183,0.0,0.0,88,0.00,,,0.00,WeatherCatV1.15B25,2013-04-26 05:54:00,
2013-04-26 01:59:00,36.5,33.3,30.37,South,183,0.0,0.0,88,0.00,,,0.00,WeatherCatV1.15B25,2013-04-26 05:59:00,
2013-04-26 02:04:00,36.3,32.8,30.37,South,183,0.0,0.0,87,0.00,,,0.00,WeatherCatV1.15B25,2013-04-26 06:04:00,
2013-04-26 02:09:00,36.2,33.0,30.37,South,183,0.0,0.0,88,0.00,,,0.00,WeatherCatV1.15B25,2013-04-26 06:09:00,
2013-04-26 02:14:00,36.2,33.0,30.37,South,183,0.0,0.0,88,0.00,,,0.00,WeatherCatV1.15B25,2013-04-26 06:14:00,
2013-04-26 02:19:00,36.1,32.9,30.38,South,183,0.0,0.0,88,0.00,,,0.00,WeatherCatV1.15B25,2013-04-26 06:19:00,
2013-04-26 02:24:00,36.0,32.8,30.38,South,183,0.0,0.0,88,0.00,,,0.00,WeatherCatV1.15B25,2013-04-26 06:24:00,
2013-04-26 02:29:00,35.8,32.6,30.38,South,183,0.0,0.0,88,0.00,,,0.00,WeatherCatV1.15B25,2013-04-26 06:29:00,
2013-04-26 02:34:00,35.7,32.5,30.38,South,183,0.0,0.0,88,0.00,,,0.00,WeatherCatV1.15B25,2013-04-26 06:34:00,
2013-04-26 02:39:00,35.5,32.3,30.37,South,183,0.0,0.0,88,0.00,,,0.00,WeatherCatV1.15B25,2013-04-26 06:39:00,
2013-04-26 02:44:00,35.3,32.1,30.37,South,183,0.0,0.0,88,0.00,,,0.00,WeatherCatV1.15B25,2013-04-26 06:44:00,
2013-04-26 02:49:00,35.2,32.0,30.38,South,183,0.0,0.0,88,0.00,,,0.00,WeatherCatV1.15B25,2013-04-26 06:49:00,
2013-04-26 02:54:00,35.0,31.8,30.38,South,183,0.0,0.0,88,0.00,,,0.00,WeatherCatV1.15B25,2013-04-26 06:54:00,
2013-04-26 02:59:00,34.8,31.6,30.38,South,183,0.0,0.0,88,0.00,,,0.00,WeatherCatV1.15B25,2013-04-26 06:59:00,
2013-04-26 03:04:00,34.7,31.5,30.39,South,183,0.0,0.0,88,0.00,,,0.00,WeatherCatV1.15B25,2013-04-26 07:04:00,
2013-04-26 03:09:00,34.6,31.4,30.39,South,183,0.0,0.0,88,0.00,,,0.01,WeatherCatV1.15B25,2013-04-26 07:09:00,
2013-04-26 03:14:00,34.5,31.3,30.39,South,183,0.0,0.0,88,0.00,,,0.01,WeatherCatV1.15B25,2013-04-26 07:14:00,
2013-04-26 03:19:00,34.4,31.2,30.39,South,183,0.0,0.0,88,0.00,,,0.01,WeatherCatV1.15B25,2013-04-26 07:19:00,
2013-04-26 03:24:00,34.2,31.0,30.39,South,183,0.0,0.0,88,0.00,,,0.01,WeatherCatV1.15B25,2013-04-26 07:24:00,
2013-04-26 03:29:00,34.0,30.8,30.39,South,183,0.0,0.0,88,0.00,,,0.01,WeatherCatV1.15B25,2013-04-26 07:29:00,
2013-04-26 03:34:00,34.0,30.8,30.39,South,183,0.0,0.0,88,0.00,,,0.01,WeatherCatV1.15B25,2013-04-26 07:34:00,
2013-04-26 03:39:00,34.0,30.8,30.40,South,183,0.0,0.0,88,0.00,,,0.01,WeatherCatV1.15B25,2013-04-26 07:39:00,
2013-04-26 03:44:00,34.0,31.1,30.40,South,183,0.0,0.0,89,0.00,,,0.01,WeatherCatV1.15B25,2013-04-26 07:44:00,
2013-04-26 03:49:00,33.9,30.7,30.40,South,183,0.0,0.0,88,0.00,,,0.01,WeatherCatV1.15B25,2013-04-26 07:49:00,
2013-04-26 03:54:00,33.8,30.9,30.40,South,183,0.0,0.0,89,0.00,,,0.01,WeatherCatV1.15B25,2013-04-26 07:54:00,
2013-04-26 03:59:00,33.7,30.8,30.40,South,183,0.0,0.0,89,0.00,,,0.01,WeatherCatV1.15B25,2013-04-26 07:59:00,
2013-04-26 04:04:00,33.6,30.7,30.40,South,183,0.0,0.0,89,0.00,,,0.01,WeatherCatV1.15B25,2013-04-26 08:04:00,
2013-04-26 04:09:00,33.6,30.7,30.40,South,183,0.0,0.0,89,0.00,,,0.01,WeatherCatV1.15B25,2013-04-26 08:09:00,
2013-04-26 04:14:00,33.5,30.6,30.40,South,183,0.0,0.0,89,0.00,,,0.01,WeatherCatV1.15B25,2013-04-26 08:14:00,
2013-04-26 04:19:00,33.4,30.5,30.40,South,183,0.0,0.0,89,0.00,,,0.01,WeatherCatV1.15B25,2013-04-26 08:19:00,
2013-04-26 04:24:00,33.3,30.4,30.40,South,183,0.0,0.0,89,0.00,,,0.01,WeatherCatV1.15B25,2013-04-26 08:24:00,
2013-04-26 04:29:00,33.2,30.3,30.40,South,183,0.0,0.0,89,0.00,,,0.01,WeatherCatV1.15B25,2013-04-26 08:29:00,
2013-04-26 04:34:00,33.1,30.2,30.40,South,183,0.0,0.0,89,0.00,,,0.01,WeatherCatV1.15B25,2013-04-26 08:34:00,
2013-04-26 04:39:00,33.1,30.2,30.40,South,183,0.0,0.0,89,0.00,,,0.01,WeatherCatV1.15B25,2013-04-26 08:39:00,
2013-04-26 04:44:00,32.9,30.0,30.40,South,183,0.0,0.0,89,0.00,,,0.01,WeatherCatV1.15B25,2013-04-26 08:44:00,
2013-04-26 04:49:00,32.9,30.0,30.40,South,183,0.0,0.0,89,0.00,,,0.01,WeatherCatV1.15B25,2013-04-26 08:49:00,
2013-04-26 04:54:00,32.8,29.9,30.41,South,183,0.0,0.0,89,0.00,,,0.01,WeatherCatV1.15B25,2013-04-26 08:54:00,
2013-04-26 04:59:00,32.8,29.9,30.41,South,183,0.0,0.0,89,0.00,,,0.01,WeatherCatV1.15B25,2013-04-26 08:59:00,
2013-04-26 05:04:00,32.6,29.7,30.41,South,183,0.0,0.0,89,0.00,,,0.01,WeatherCatV1.15B25,2013-04-26 09:04:00,
2013-04-26 05:09:00,32.5,29.6,30.41,South,183,0.0,0.0,89,0.00,,,0.01,WeatherCatV1.15B25,2013-04-26 09:09:00,
2013-04-26 05:14:00,32.4,29.5,30.41,South,183,0.0,0.0,89,0.00,,,0.01,WeatherCatV1.15B25,2013-04-26 09:14:00,
2013-04-26 05:19:00,32.4,29.5,30.41,South,183,0.0,0.0,89,0.00,,,0.01,WeatherCatV1.15B25,2013-04-26 09:19:00,
2013-04-26 05:24:00,32.4,29.5,30.42,South,183,0.0,0.0,89,0.00,,,0.01,WeatherCatV1.15B25,2013-04-26 09:24:00,
2013-04-26 05:29:00,32.4,29.5,30.42,South,183,0.0,0.0,89,0.00,,,0.01,WeatherCatV1.15B25,2013-04-26 09:29:00,
2013-04-26 05:34:00,32.3,29.4,30.42,South,183,0.0,0.0,89,0.00,,,0.01,WeatherCatV1.15B25,2013-04-26 09:34:00,
2013-04-26 05:39:00,32.2,29.3,30.42,South,183,0.0,0.0,89,0.00,,,0.01,WeatherCatV1.15B25,2013-04-26 09:39:00,
2013-04-26 05:44:00,32.1,29.2,30.42,South,183,0.0,0.0,89,0.00,,,0.01,WeatherCatV1.15B25,2013-04-26 09:44:00,
2013-04-26 05:49:00,32.0,29.1,30.42,South,183,0.0,0.0,89,0.00,,,0.01,WeatherCatV1.15B25,2013-04-26 09:49:00,
2013-04-26 05:54:00,32.0,29.1,30.42,South,183,0.0,0.0,89,0.00,,,0.01,WeatherCatV1.15B25,2013-04-26 09:54:00,
2013-04-26 05:59:00,31.9,29.0,30.42,South,183,0.0,0.0,89,0.00,,,0.01,WeatherCatV1.15B25,2013-04-26 09:59:00,
2013-04-26 06:04:00,31.9,29.0,30.42,South,183,0.0,0.0,89,0.00,,,0.01,WeatherCatV1.15B25,2013-04-26 10:04:00,
2013-04-26 06:09:00,31.8,29.2,30.42,South,183,0.0,0.0,90,0.00,,,0.01,WeatherCatV1.15B25,2013-04-26 10:09:00,
2013-04-26 06:14:00,31.7,29.1,30.43,South,183,0.0,0.0,90,0.00,,,0.01,WeatherCatV1.15B25,2013-04-26 10:14:00,
2013-04-26 06:19:00,31.7,29.1,30.43,South,183,0.0,0.0,90,0.00,,,0.01,WeatherCatV1.15B25,2013-04-26 10:19:00,
2013-04-26 06:24:00,31.8,29.2,30.43,South,183,0.0,0.0,90,0.00,,,0.01,WeatherCatV1.15B25,2013-04-26 10:24:00,
2013-04-26 06:29:00,31.8,29.2,30.44,South,183,0.0,0.0,90,0.00,,,0.01,WeatherCatV1.15B25,2013-04-26 10:29:00,
2013-04-26 06:34:00,31.7,29.1,30.44,South,183,0.0,0.0,90,0.00,,,0.01,WeatherCatV1.15B25,2013-04-26 10:34:00,
2013-04-26 06:39:00,31.7,29.1,30.44,South,183,0.0,0.0,90,0.00,,,0.01,WeatherCatV1.15B25,2013-04-26 10:39:00,
2013-04-26 06:44:00,31.7,29.1,30.44,South,183,0.0,0.0,90,0.00,,,0.01,WeatherCatV1.15B25,2013-04-26 10:44:00,
2013-04-26 06:49:00,32.0,29.4,30.45,South,183,0.0,0.0,90,0.00,,,0.01,WeatherCatV1.15B25,2013-04-26 10:49:00,
2013-04-26 06:54:00,32.0,29.4,30.45,South,183,0.0,0.0,90,0.00,,,0.01,WeatherCatV1.15B25,2013-04-26 10:54:00,
2013-04-26 06:59:00,32.0,29.4,30.45,South,183,0.0,0.0,90,0.00,,,0.01,WeatherCatV1.15B25,2013-04-26 10:59:00,
2013-04-26 07:04:00,32.0,29.4,30.45,South,183,0.0,0.0,90,0.00,,,0.01,WeatherCatV1.15B25,2013-04-26 11:04:00,
2013-04-26 07:09:00,32.2,29.6,30.45,South,183,0.0,0.0,90,0.00,,,0.01,WeatherCatV1.15B25,2013-04-26 11:09:00,
2013-04-26 07:14:00,32.5,29.9,30.45,South,183,0.0,0.0,90,0.00,,,0.01,WeatherCatV1.15B25,2013-04-26 11:14:00,
2013-04-26 07:19:00,32.8,30.2,30.45,South,183,0.0,0.0,90,0.00,,,0.01,WeatherCatV1.15B25,2013-04-26 11:19:00,
2013-04-26 07:24:00,33.3,30.7,30.45,South,183,0.0,0.0,90,0.00,,,0.01,WeatherCatV1.15B25,2013-04-26 11:24:00,
2013-04-26 07:29:00,33.8,31.2,30.45,South,183,0.0,0.0,90,0.00,,,0.01,WeatherCatV1.15B25,2013-04-26 11:29:00,
2013-04-26 07:34:00,34.3,31.7,30.46,South,183,0.0,0.0,90,0.00,,,0.01,WeatherCatV1.15B25,2013-04-26 11:34:00,
2013-04-26 07:39:00,34.6,32.0,30.46,South,183,0.0,0.0,90,0.00,,,0.01,WeatherCatV1.15B25,2013-04-26 11:39:00,
2013-04-26 07:44:00,35.2,32.6,30.46,South,183,0.0,0.0,90,0.00,,,0.01,WeatherCatV1.15B25,2013-04-26 11:44:00,
2013-04-26 07:49:00,35.7,33.1,30.46,South,183,0.0,0.0,90,0.00,,,0.01,WeatherCatV1.15B25,2013-04-26 11:49:00,
2013-04-26 07:54:00,36.2,33.6,30.46,South,183,0.0,0.0,90,0.00,,,0.01,WeatherCatV1.15B25,2013-04-26 11:54:00,
2013-04-26 07:59:00,36.8,34.4,30.47,South,183,0.0,0.0,91,0.00,,,0.01,WeatherCatV1.15B25,2013-04-26 11:59:00,
2013-04-26 08:04:00,37.3,34.9,30.47,South,183,0.0,0.0,91,0.00,,,0.01,WeatherCatV1.15B25,2013-04-26 12:04:00,
2013-04-26 08:09:00,38.0,35.6,30.47,South,183,0.0,0.0,91,0.00,,,0.01,WeatherCatV1.15B25,2013-04-26 12:09:00,
2013-04-26 08:14:00,38.9,36.5,30.47,South,183,0.0,2.0,91,0.00,,,0.01,WeatherCatV1.15B25,2013-04-26 12:14:00,
2013-04-26 08:19:00,39.6,36.9,30.47,South,184,1.0,2.0,90,0.00,,,0.01,WeatherCatV1.15B25,2013-04-26 12:19:00,
2013-04-26 08:24:00,40.2,37.5,30.47,South,188,0.0,1.0,90,0.00,,,0.01,WeatherCatV1.15B25,2013-04-26 12:24:00,
2013-04-26 08:29:00,40.9,37.9,30.47,SE,134,0.0,0.0,89,0.00,,,0.01,WeatherCatV1.15B25,2013-04-26 12:29:00,
2013-04-26 08:34:00,41.5,38.2,30.47,South,187,0.0,0.0,88,0.00,,,0.01,WeatherCatV1.15B25,2013-04-26 12:34:00,
2013-04-26 08:39:00,42.1,38.8,30.47,ESE,118,0.0,0.0,88,0.00,,,0.01,WeatherCatV1.15B25,2013-04-26 12:39:00,
2013-04-26 08:44:00,42.8,38.9,30.47,SE,140,0.0,0.0,86,0.00,,,0.01,WeatherCatV1.15B25,2013-04-26 12:44:00,
2013-04-26 08:49:00,43.4,39.5,30.47,SSW,195,0.0,3.0,86,0.00,,,0.01,WeatherCatV1.15B25,2013-04-26 12:49:00,
2013-04-26 08:54:00,43.9,39.1,30.47,ESE,118,2.0,2.0,83,0.00,,,0.01,WeatherCatV1.15B25,2013-04-26 12:54:00,
2013-04-26 08:59:00,44.5,39.0,30.47,SSW,198,2.0,3.0,81,0.00,,,0.01,WeatherCatV1.15B25,2013-04-26 12:59:00,
2013-04-26 09:04:00,45.1,39.3,30.47,SSW,198,0.0,0.0,80,0.00,,,0.01,WeatherCatV1.15B25,2013-04-26 13:04:00,
2013-04-26 09:09:00,45.7,39.2,30.47,SE,134,0.0,0.0,78,0.00,,,0.01,WeatherCatV1.15B25,2013-04-26 13:09:00,
2013-04-26 09:14:00,46.6,39.4,30.47,SE,134,0.0,1.0,76,0.00,,,0.01,WeatherCatV1.15B25,2013-04-26 13:14:00,
2013-04-26 09:19:00,47.3,39.4,30.47,SE,134,0.0,2.0,74,0.00,,,0.01,WeatherCatV1.15B25,2013-04-26 13:19:00,
2013-04-26 09:24:00,47.8,38.9,30.47,SE,126,0.0,4.0,71,0.00,,,0.01,WeatherCatV1.15B25,2013-04-26 13:24:00,
2013-04-26 09:29:00,48.0,37.6,30.47,SE,126,0.0,4.0,67,0.00,,,0.01,WeatherCatV1.15B25,2013-04-26 13:29:00,
2013-04-26 09:34:00,48.2,37.0,30.47,SSW,192,4.0,5.0,65,0.00,,,0.01,WeatherCatV1.15B25,2013-04-26 13:34:00,
2013-04-26 09:39:00,48.6,37.0,30.48,ESE,107,3.0,3.0,64,0.00,,,0.01,WeatherCatV1.15B25,2013-04-26 13:39:00,
2013-04-26 09:44:00,48.8,36.8,30.48,SSW,213,0.0,2.0,63,0.00,,,0.01,WeatherCatV1.15B25,2013-04-26 13:44:00,
2013-04-26 09:49:00,49.0,36.6,30.48,SSW,213,0.0,4.0,62,0.00,,,0.01,WeatherCatV1.15B25,2013-04-26 13:49:00,
2013-04-26 09:54:00,49.0,35.3,30.48,SW,234,0.0,0.0,59,0.00,,,0.01,WeatherCatV1.15B25,2013-04-26 13:54:00,
2013-04-26 09:59:00,49.8,36.1,30.48,SSW,198,2.0,2.0,59,0.00,,,0.01,WeatherCatV1.15B25,2013-04-26 13:59:00,
2013-04-26 10:04:00,50.1,35.9,30.48,SW,227,0.0,0.0,58,0.00,,,0.01,WeatherCatV1.15B25,2013-04-26 14:04:00,
2013-04-26 10:09:00,50.9,35.3,30.48,North,0,0.0,0.0,55,0.00,,,0.01,WeatherCatV1.15B25,2013-04-26 14:09:00,
2013-04-26 10:14:00,51.6,34.1,30.48,North,0,0.0,1.0,51,0.00,,,0.01,WeatherCatV1.15B25,2013-04-26 14:14:00,
2013-04-26 10:19:00,51.8,35.2,30.48,ESE,115,3.0,4.0,53,0.00,,,0.01,WeatherCatV1.15B25,2013-04-26 14:19:00,
2013-04-26 10:24:00,51.2,32.2,30.48,SE,146,0.0,2.0,48,0.00,,,0.01,WeatherCatV1.15B25,2013-04-26 14:24:00,
2013-04-26 10:29:00,51.1,34.6,30.48,NNE,25,3.0,3.0,53,0.00,,,0.01,WeatherCatV1.15B25,2013-04-26 14:29:00,
2013-04-26 10:34:00,51.6,36.4,30.48,North,355,1.0,3.0,56,0.00,,,0.01,WeatherCatV1.15B25,2013-04-26 14:34:00,
2013-04-26 10:39:00,51.9,33.3,30.48,West,274,0.0,0.0,49,0.00,,,0.01,WeatherCatV1.15B25,2013-04-26 14:39:00,
2013-04-26 10:44:00,52.0,33.9,30.48,NNW,341,0.0,1.0,50,0.00,,,0.01,WeatherCatV1.15B25,2013-04-26 14:44:00,
2013-04-26 10:49:00,52.0,30.8,30.48,NNW,342,0.0,0.0,44,0.00,,,0.01,WeatherCatV1.15B25,2013-04-26 14:49:00,
2013-04-26 10:54:00,51.6,35.5,30.48,ENE,77,2.0,2.0,54,0.00,,,0.01,WeatherCatV1.15B25,2013-04-26 14:54:00,
2013-04-26 10:59:00,51.4,38.4,30.48,NE,40,0.0,0.0,61,0.00,,,0.01,WeatherCatV1.15B25,2013-04-26 14:59:00,
2013-04-26 11:04:00,51.5,39.7,30.48,NNE,17,1.0,3.0,64,0.00,,,0.01,WeatherCatV1.15B25,2013-04-26 15:04:00,
2013-04-26 11:09:00,51.7,38.7,30.48,North,355,2.0,4.0,61,0.00,,,0.01,WeatherCatV1.15B25,2013-04-26 15:09:00,
2013-04-26 11:14:00,50.8,39.5,30.49,West,275,3.0,3.0,65,0.00,,,0.01,WeatherCatV1.15B25,2013-04-26 15:14:00,
2013-04-26 11:19:00,49.9,39.8,30.49,NW,321,0.0,2.0,68,0.00,,,0.01,WeatherCatV1.15B25,2013-04-26 15:19:00,
2013-04-26 11:24:00,49.5,38.6,30.49,West,261,0.0,4.0,66,0.00,,,0.01,WeatherCatV1.15B25,2013-04-26 15:24:00,
2013-04-26 11:29:00,49.6,39.1,30.49,North,10,3.0,3.0,67,0.00,,,0.01,WeatherCatV1.15B25,2013-04-26 15:29:00,
2013-04-26 11:34:00,50.2,39.3,30.49,NW,315,0.0,1.0,66,0.00,,,0.01,WeatherCatV1.15B25,2013-04-26 15:34:00,
2013-04-26 11:39:00,50.7,38.6,30.49,NNE,15,0.0,5.0,63,0.00,,,0.01,WeatherCatV1.15B25,2013-04-26 15:39:00,
2013-04-26 11:44:00,50.9,40.3,30.49,West,281,0.0,1.0,67,0.00,,,0.01,WeatherCatV1.15B25,2013-04-26 15:44:00,
2013-04-26 11:49:00,50.0,38.3,30.49,North,350,3.0,3.0,64,0.00,,,0.01,WeatherCatV1.15B25,2013-04-26 15:49:00,
2013-04-26 11:54:00,50.7,40.1,30.49,NNW,341,1.0,1.0,67,0.00,,,0.01,WeatherCatV1.15B25,2013-04-26 15:54:00,
2013-04-26 11:59:00,50.9,40.3,30.49,WNW,299,0.0,0.0,67,0.00,,,0.01,WeatherCatV1.15B25,2013-04-26 15:59:00,
2013-04-26 12:04:00,50.8,39.5,30.49,West,276,1.0,4.0,65,0.00,,,0.01,WeatherCatV1.15B25,2013-04-26 16:04:00,
2013-04-26 12:09:00,50.6,40.4,30.49,NNE,13,0.0,3.0,68,0.00,,,0.01,WeatherCatV1.15B25,2013-04-26 16:09:00,
2013-04-26 12:14:00,51.0,40.0,30.49,NE,38,0.0,1.0,66,0.00,,,0.01,WeatherCatV1.15B25,2013-04-26 16:14:00,
2013-04-26 12:19:00,52.1,39.5,30.49,West,277,2.0,5.0,62,0.00,,,0.01,WeatherCatV1.15B25,2013-04-26 16:19:00,
2013-04-26 12:24:00,51.7,38.3,30.48,NNW,328,0.0,2.0,60,0.00,,,0.01,WeatherCatV1.15B25,2013-04-26 16:24:00,
2013-04-26 12:29:00,51.6,37.7,30.48,West,269,1.0,3.0,59,0.00,,,0.01,WeatherCatV1.15B25,2013-04-26 16:29:00,
2013-04-26 12:34:00,52.0,39.8,30.48,NNW,337,1.0,4.0,63,0.00,,,0.01,WeatherCatV1.15B25,2013-04-26 16:34:00,
2013-04-26 12:39:00,50.9,39.6,30.48,West,269,2.0,5.0,65,0.00,,,0.01,WeatherCatV1.15B25,2013-04-26 16:39:00,
2013-04-26 12:44:00,50.4,38.3,30.48,WNW,284,0.0,4.0,63,0.00,,,0.01,WeatherCatV1.15B25,2013-04-26 16:44:00,
2013-04-26 12:49:00,50.5,38.8,30.48,WNW,296,0.0,3.0,64,0.00,,,0.01,WeatherCatV1.15B25,2013-04-26 16:49:00,
2013-04-26 12:54:00,50.6,40.1,30.48,NW,310,0.0,0.0,67,0.00,,,0.01,WeatherCatV1.15B25,2013-04-26 16:54:00,
2013-04-26 12:59:00,50.6,37.7,30.48,NW,323,2.0,3.0,61,0.00,,,0.01,WeatherCatV1.15B25,2013-04-26 16:59:00,
2013-04-26 13:04:00,51.7,37.0,30.48,NW,324,2.0,5.0,57,0.00,,,0.01,WeatherCatV1.15B25,2013-04-26 17:04:00,
2013-04-26 13:09:00,52.0,39.0,30.48,East,90,2.0,2.0,61,0.00,,,0.01,WeatherCatV1.15B25,2013-04-26 17:09:00,
2013-04-26 13:14:00,52.1,36.9,30.48,NW,321,2.0,5.0,56,0.00,,,0.01,WeatherCatV1.15B25,2013-04-26 17:14:00,
2013-04-26 13:19:00,52.0,39.4,30.48,WNW,288,2.0,5.0,62,0.00,,,0.01,WeatherCatV1.15B25,2013-04-26 17:19:00,
2013-04-26 13:24:00,51.1,38.9,30.48,West,263,3.0,4.0,63,0.00,,,0.01,WeatherCatV1.15B25,2013-04-26 17:24:00,
2013-04-26 13:29:00,50.9,38.3,30.48,NE,40,0.0,3.0,62,0.00,,,0.01,WeatherCatV1.15B25,2013-04-26 17:29:00,
2013-04-26 13:34:00,51.1,37.3,30.48,West,280,0.0,4.0,59,0.00,,,0.01,WeatherCatV1.15B25,2013-04-26 17:34:00,
2013-04-26 13:39:00,51.7,35.1,30.47,NNE,30,3.0,5.0,53,0.00,,,0.01,WeatherCatV1.15B25,2013-04-26 17:39:00,
2013-04-26 13:44:00,51.1,35.5,30.47,NW,323,4.0,6.0,55,0.00,,,0.01,WeatherCatV1.15B25,2013-04-26 17:44:00,
2013-04-26 13:49:00,51.5,36.8,30.47,NW,318,2.0,4.0,57,0.00,,,0.01,WeatherCatV1.15B25,2013-04-26 17:49:00,
2013-04-26 13:54:00,51.5,36.8,30.48,NW,325,2.0,4.0,57,0.00,,,0.01,WeatherCatV1.15B25,2013-04-26 17:54:00,
2013-04-26 13:59:00,51.4,35.8,30.48,NNW,327,0.0,5.0,55,0.00,,,0.01,WeatherCatV1.15B25,2013-04-26 17:59:00,
2013-04-26 14:04:00,51.3,36.6,30.48,North,0,2.0,6.0,57,0.00,,,0.01,WeatherCatV1.15B25,2013-04-26 18:04:00,
2013-04-26 14:09:00,50.3,36.5,30.48,WNW,291,0.0,5.0,59,0.00,,,0.01,WeatherCatV1.15B25,2013-04-26 18:09:00,
2013-04-26 14:14:00,51.5,36.3,30.47,NNW,331,2.0,2.0,56,0.00,,,0.01,WeatherCatV1.15B25,2013-04-26 18:14:00,
2013-04-26 14:19:00,51.6,36.0,30.47,ENE,61,0.0,4.0,55,0.00,,,0.01,WeatherCatV1.15B25,2013-04-26 18:19:00,
2013-04-26 14:24:00,52.2,35.6,30.47,NW,319,0.0,4.0,53,0.00,,,0.01,WeatherCatV1.15B25,2013-04-26 18:24:00,
2013-04-26 14:29:00,52.6,36.4,30.47,North,355,2.0,5.0,54,0.00,,,0.01,WeatherCatV1.15B25,2013-04-26 18:29:00,
2013-04-26 14:34:00,53.0,35.8,30.47,ENE,69,4.0,6.0,52,0.00,,,0.01,WeatherCatV1.15B25,2013-04-26 18:34:00,
2013-04-26 14:39:00,51.7,33.2,30.47,NE,42,3.0,7.0,49,0.00,,,0.01,WeatherCatV1.15B25,2013-04-26 18:39:00,
2013-04-26 14:44:00,51.9,35.3,30.47,WNW,296,0.0,3.0,53,0.00,,,0.01,WeatherCatV1.15B25,2013-04-26 18:44:00,
2013-04-26 14:49:00,52.3,35.7,30.47,North,0,3.0,3.0,53,0.00,,,0.01,WeatherCatV1.15B25,2013-04-26 18:49:00,
2013-04-26 14:54:00,52.1,35.5,30.47,NE,37,0.0,6.0,53,0.00,,,0.01,WeatherCatV1.15B25,2013-04-26 18:54:00,
2013-04-26 14:59:00,52.0,33.9,30.47,NNW,340,2.0,4.0,50,0.00,,,0.01,WeatherCatV1.15B25,2013-04-26 18:59:00,
2013-04-26 15:04:00,52.0,35.4,30.47,NW,316,3.0,4.0,53,0.00,,,0.01,WeatherCatV1.15B25,2013-04-26 19:04:00,
2013-04-26 15:09:00,51.7,35.1,30.47,NE,46,4.0,4.0,53,0.00,,,0.01,WeatherCatV1.15B25,2013-04-26 19:09:00,
2013-04-26 15:14:00,51.6,34.1,30.46,NE,52,0.0,1.0,51,0.00,,,0.01,WeatherCatV1.15B25,2013-04-26 19:14:00,
2013-04-26 15:19:00,51.5,32.5,30.46,ENE,71,5.0,8.0,48,0.00,,,0.01,WeatherCatV1.15B25,2013-04-26 19:19:00,
2013-04-26 15:24:00,51.7,34.6,30.46,North,355,0.0,3.0,52,0.00,,,0.01,WeatherCatV1.15B25,2013-04-26 19:24:00,
2013-04-26 15:29:00,52.1,34.5,30.46,NNE,14,0.0,4.0,51,0.00,,,0.01,WeatherCatV1.15B25,2013-04-26 19:29:00,
2013-04-26 15:34:00,52.5,37.3,30.46,WNW,291,0.0,1.0,56,0.00,,,0.01,WeatherCatV1.15B25,2013-04-26 19:34:00,
2013-04-26 15:39:00,52.3,36.6,30.46,NE,34,0.0,4.0,55,0.00,,,0.01,WeatherCatV1.15B25,2013-04-26 19:39:00,
2013-04-26 15:44:00,52.0,35.9,30.46,NW,324,0.0,0.0,54,0.00,,,0.01,WeatherCatV1.15B25,2013-04-26 19:44:00,
2013-04-26 15:49:00,52.1,34.0,30.45,ENE,70,2.0,3.0,50,0.00,,,0.01,WeatherCatV1.15B25,2013-04-26 19:49:00,
2013-04-26 15:54:00,52.3,33.7,30.45,NNW,345,0.0,4.0,49,0.00,,,0.01,WeatherCatV1.15B25,2013-04-26 19:54:00,
2013-04-26 15:59:00,51.5,33.5,30.45,North,0,3.0,6.0,50,0.00,,,0.01,WeatherCatV1.15B25,2013-04-26 19:59:00,
2013-04-26 16:04:00,51.4,31.9,30.45,West,280,3.0,3.0,47,0.00,,,0.01,WeatherCatV1.15B25,2013-04-26 20:04:00,
2013-04-26 16:09:00,51.3,31.2,30.45,NNE,18,0.0,5.0,46,0.00,,,0.01,WeatherCatV1.15B25,2013-04-26 20:09:00,
2013-04-26 16:14:00,51.1,31.0,30.45,NNW,331,0.0,5.0,46,0.00,,,0.01,WeatherCatV1.15B25,2013-04-26 20:14:00,
2013-04-26 16:19:00,51.6,33.1,30.44,West,280,0.0,6.0,49,0.00,,,0.01,WeatherCatV1.15B25,2013-04-26 20:19:00,
2013-04-26 16:24:00,51.5,30.3,30.44,NW,314,2.0,6.0,44,0.00,,,0.01,WeatherCatV1.15B25,2013-04-26 20:24:00,
2013-04-26 16:29:00,51.0,29.9,30.44,NNE,22,6.0,9.0,44,0.00,,,0.01,WeatherCatV1.15B25,2013-04-26 20:29:00,
2013-04-26 16:34:00,50.9,30.3,30.43,North,5,0.0,6.0,45,0.00,,,0.01,WeatherCatV1.15B25,2013-04-26 20:34:00,
2013-04-26 16:39:00,51.1,29.4,30.43,NNE,29,2.0,3.0,43,0.00,,,0.01,WeatherCatV1.15B25,2013-04-26 20:39:00,
2013-04-26 16:44:00,51.1,28.8,30.43,NNE,24,0.0,6.0,42,0.00,,,0.01,WeatherCatV1.15B25,2013-04-26 20:44:00,
2013-04-26 16:49:00,51.5,31.4,30.43,NW,316,2.0,5.0,46,0.00,,,0.01,WeatherCatV1.15B25,2013-04-26 20:49:00,
2013-04-26 16:54:00,51.5,31.4,30.43,NE,46,0.0,5.0,46,0.00,,,0.01,WeatherCatV1.15B25,2013-04-26 20:54:00,
2013-04-26 16:59:00,51.3,31.8,30.43,NNW,335,4.0,9.0,47,0.00,,,0.01,WeatherCatV1.15B25,2013-04-26 20:59:00,
2013-04-26 17:04:00,51.0,31.5,30.43,NE,52,1.0,4.0,47,0.00,,,0.01,WeatherCatV1.15B25,2013-04-26 21:04:00,
2013-04-26 17:09:00,51.1,31.6,30.42,East,82,6.0,6.0,47,0.00,,,0.01,WeatherCatV1.15B25,2013-04-26 21:09:00,
2013-04-26 17:14:00,50.7,31.2,30.42,East,83,1.0,6.0,47,0.00,,,0.01,WeatherCatV1.15B25,2013-04-26 21:14:00,
2013-04-26 17:19:00,50.6,32.2,30.42,NNW,342,0.0,4.0,49,0.00,,,0.01,WeatherCatV1.15B25,2013-04-26 21:19:00,
2013-04-26 17:24:00,50.9,32.4,30.42,NE,46,1.0,6.0,49,0.00,,,0.01,WeatherCatV1.15B25,2013-04-26 21:24:00,
2013-04-26 17:29:00,51.2,31.7,30.42,NNW,331,3.0,3.0,47,0.00,,,0.01,WeatherCatV1.15B25,2013-04-26 21:29:00,
2013-04-26 17:34:00,51.3,31.2,30.42,ENE,65,0.0,4.0,46,0.00,,,0.01,WeatherCatV1.15B25,2013-04-26 21:34:00,
2013-04-26 17:39:00,50.9,31.4,30.42,NNW,346,2.0,5.0,47,0.00,,,0.01,WeatherCatV1.15B25,2013-04-26 21:39:00,
2013-04-26 17:44:00,51.1,32.1,30.42,North,0,0.0,3.0,48,0.00,,,0.01,WeatherCatV1.15B25,2013-04-26 21:44:00,
2013-04-26 17:49:00,51.4,32.9,30.42,ENE,57,4.0,4.0,49,0.00,,,0.01,WeatherCatV1.15B25,2013-04-26 21:49:00,
2013-04-26 17:54:00,51.4,31.9,30.42,ENE,72,0.0,2.0,47,0.00,,,0.01,WeatherCatV1.15B25,2013-04-26 21:54:00,
2013-04-26 17:59:00,51.3,32.3,30.42,ENE,59,0.0,5.0,48,0.00,,,0.01,WeatherCatV1.15B25,2013-04-26 21:59:00,
2013-04-26 18:04:00,51.0,31.0,30.42,North,0,0.0,9.0,46,0.00,,,0.01,WeatherCatV1.15B25,2013-04-26 22:04:00,
2013-04-26 18:09:00,50.5,30.0,30.42,NE,42,0.0,5.0,45,0.00,,,0.01,WeatherCatV1.15B25,2013-04-26 22:09:00,
2013-04-26 18:14:00,50.4,30.4,30.42,NNW,348,1.0,7.0,46,0.00,,,0.01,WeatherCatV1.15B25,2013-04-26 22:14:00,
2013-04-26 18:19:00,50.5,31.0,30.42,ENE,57,0.0,3.0,47,0.00,,,0.01,WeatherCatV1.15B25,2013-04-26 22:19:00,
2013-04-26 18:24:00,50.5,30.0,30.42,NNW,336,0.0,6.0,45,0.00,,,0.01,WeatherCatV1.15B25,2013-04-26 22:24:00,
2013-04-26 18:29:00,50.3,30.3,30.42,North,5,0.0,5.0,46,0.00,,,0.01,WeatherCatV1.15B25,2013-04-26 22:29:00,
2013-04-26 18:34:00,50.0,29.5,30.42,NNE,22,0.0,4.0,45,0.00,,,0.01,WeatherCatV1.15B25,2013-04-26 22:34:00,
2013-04-26 18:39:00,49.6,29.1,30.42,North,355,0.0,2.0,45,0.00,,,0.01,WeatherCatV1.15B25,2013-04-26 22:39:00,
2013-04-26 18:44:00,49.4,28.4,30.42,ENE,76,0.0,5.0,44,0.00,,,0.01,WeatherCatV1.15B25,2013-04-26 22:44:00,
2013-04-26 18:49:00,49.3,27.8,30.42,NNE,18,2.0,5.0,43,0.00,,,0.01,WeatherCatV1.15B25,2013-04-26 22:49:00,
2013-04-26 18:54:00,49.6,28.0,30.42,ENE,65,2.0,2.0,43,0.00,,,0.01,WeatherCatV1.15B25,2013-04-26 22:54:00,
2013-04-26 18:59:00,49.9,28.3,30.42,ENE,74,1.0,5.0,43,0.00,,,0.01,WeatherCatV1.15B25,2013-04-26 22:59:00,
2013-04-26 19:04:00,50.0,28.4,30.42,NNE,15,2.0,4.0,43,0.00,,,0.01,WeatherCatV1.15B25,2013-04-26 23:04:00,
2013-04-26 19:09:00,50.1,27.9,30.42,East,85,3.0,3.0,42,0.00,,,0.01,WeatherCatV1.15B25,2013-04-26 23:09:00,
2013-04-26 19:14:00,50.0,27.8,30.42,ENE,71,0.0,3.0,42,0.00,,,0.01,WeatherCatV1.15B25,2013-04-26 23:14:00,
2013-04-26 19:19:00,49.7,28.1,30.42,ENE,61,2.0,2.0,43,0.00,,,0.01,WeatherCatV1.15B25,2013-04-26 23:19:00,
2013-04-26 19:24:00,49.7,28.7,30.42,NE,53,0.0,0.0,44,0.00,,,0.01,WeatherCatV1.15B25,2013-04-26 23:24:00,
2013-04-26 19:29:00,49.8,28.8,30.42,North,355,0.0,1.0,44,0.00,,,0.01,WeatherCatV1.15B25,2013-04-26 23:29:00,
2013-04-26 19:34:00,49.8,28.8,30.42,NE,55,1.0,2.0,44,0.00,,,0.01,WeatherCatV1.15B25,2013-04-26 23:34:00,
2013-04-26 19:39:00,49.5,27.9,30.42,NNE,20,0.0,2.0,43,0.00,,,0.01,WeatherCatV1.15B25,2013-04-26 23:39:00,
2013-04-26 19:44:00,49.3,27.8,30.42,NNE,27,0.0,3.0,43,0.00,,,0.01,WeatherCatV1.15B25,2013-04-26 23:44:00,
2013-04-26 19:49:00,49.1,27.0,30.42,North,0,0.0,4.0,42,0.00,,,0.01,WeatherCatV1.15B25,2013-04-26 23:49:00,
2013-04-26 19:54:00,48.8,26.7,30.42,ENE,61,1.0,4.0,42,0.00,,,0.01,WeatherCatV1.15B25,2013-04-26 23:54:00,
2013-04-26 20:06:00,48.3,26.3,30.41,NE,51,0.0,3.0,42,0.00,,,0.01,WeatherCatV1.15B25,2013-04-27 00:06:00,
2013-04-26 20:11:00,48.2,26.8,30.41,NNE,19,1.0,1.0,43,0.00,,,0.01,WeatherCatV1.15B25,2013-04-27 00:11:00,
2013-04-26 20:16:00,48.0,26.6,30.41,NNE,22,0.0,0.0,43,0.00,,,0.01,WeatherCatV1.15B25,2013-04-27 00:16:00,
2013-04-26 20:21:00,47.8,26.4,30.41,NNE,22,0.0,0.0,43,0.00,,,0.01,WeatherCatV1.15B25,2013-04-27 00:21:00,
2013-04-26 20:26:00,47.6,26.8,30.41,NNE,23,0.0,0.0,44,0.00,,,0.01,WeatherCatV1.15B25,2013-04-27 00:26:00,
2013-04-26 20:31:00,47.4,27.1,30.41,NNE,23,0.0,0.0,45,0.00,,,0.01,WeatherCatV1.15B25,2013-04-27 00:31:00,
2013-04-26 20:36:00,47.1,27.4,30.41,NNE,22,0.0,0.0,46,0.00,,,0.01,WeatherCatV1.15B25,2013-04-27 00:36:00,
2013-04-26 20:41:00,46.9,27.7,30.41,NNE,22,0.0,0.0,47,0.00,,,0.01,WeatherCatV1.15B25,2013-04-27 00:41:00,
2013-04-26 20:46:00,46.7,27.6,30.41,NNE,23,0.0,0.0,47,0.00,,,0.01,WeatherCatV1.15B25,2013-04-27 00:46:00,
2013-04-26 20:51:00,46.5,27.9,30.41,NNE,22,0.0,0.0,48,0.00,,,0.01,WeatherCatV1.15B25,2013-04-27 00:51:00,
2013-04-26 20:56:00,46.4,28.3,30.41,NNE,22,0.0,0.0,49,0.00,,,0.01,WeatherCatV1.15B25,2013-04-27 00:56:00,
2013-04-26 21:01:00,46.2,29.1,30.41,NNE,23,0.0,0.0,51,0.00,,,0.01,WeatherCatV1.15B25,2013-04-27 01:01:00,
2013-04-26 21:06:00,46.1,28.0,30.41,NNE,23,0.0,0.0,49,0.00,,,0.01,WeatherCatV1.15B25,2013-04-27 01:06:00,
2013-04-26 21:11:00,46.1,28.0,30.41,NNE,23,0.0,0.0,49,0.00,,,0.01,WeatherCatV1.15B25,2013-04-27 01:11:00,
2013-04-26 21:16:00,46.1,28.0,30.41,NNE,23,0.0,0.0,49,0.00,,,0.01,WeatherCatV1.15B25,2013-04-27 01:16:00,
2013-04-26 21:21:00,46.0,27.9,30.41,NNE,23,0.0,0.0,49,0.00,,,0.01,WeatherCatV1.15B25,2013-04-27 01:21:00,
2013-04-26 21:26:00,45.9,27.8,30.41,NNE,22,0.0,0.0,49,0.00,,,0.01,WeatherCatV1.15B25,2013-04-27 01:26:00,
2013-04-26 21:31:00,45.7,28.1,30.41,NNE,22,0.0,0.0,50,0.00,,,0.01,WeatherCatV1.15B25,2013-04-27 01:31:00,
2013-04-26 21:36:00,45.5,28.9,30.41,NNE,23,0.0,0.0,52,0.00,,,0.01,WeatherCatV1.15B25,2013-04-27 01:36:00,
2013-04-26 21:41:00,45.2,29.1,30.41,NNE,23,0.0,0.0,53,0.00,,,0.01,WeatherCatV1.15B25,2013-04-27 01:41:00,
2013-04-26 21:46:00,44.9,30.2,30.41,NNE,23,0.0,0.0,56,0.00,,,0.01,WeatherCatV1.15B25,2013-04-27 01:46:00,
2013-04-26 21:51:00,44.7,29.5,30.42,NNE,22,0.0,0.0,55,0.00,,,0.01,WeatherCatV1.15B25,2013-04-27 01:51:00,
2013-04-26 21:56:00,44.5,29.8,30.42,NNE,22,0.0,0.0,56,0.00,,,0.01,WeatherCatV1.15B25,2013-04-27 01:56:00,
2013-04-26 22:01:00,44.3,31.3,30.42,NNE,22,0.0,0.0,60,0.00,,,0.01,WeatherCatV1.15B25,2013-04-27 02:01:00,
2013-04-26 22:06:00,44.1,29.9,30.42,NNE,23,0.0,0.0,57,0.00,,,0.01,WeatherCatV1.15B25,2013-04-27 02:06:00,
2013-04-26 22:11:00,43.9,29.7,30.42,NNE,23,0.0,0.0,57,0.00,,,0.01,WeatherCatV1.15B25,2013-04-27 02:11:00,
2013-04-26 22:16:00,43.7,29.9,30.42,NNE,23,0.0,0.0,58,0.00,,,0.01,WeatherCatV1.15B25,2013-04-27 02:16:00,
2013-04-26 22:21:00,43.4,29.2,30.42,NNE,23,0.0,0.0,57,0.00,,,0.01,WeatherCatV1.15B25,2013-04-27 02:21:00,
2013-04-26 22:26:00,43.3,30.4,30.42,NNE,22,0.0,0.0,60,0.00,,,0.01,WeatherCatV1.15B25,2013-04-27 02:26:00,
2013-04-26 22:31:00,43.0,30.1,30.42,NNE,22,0.0,0.0,60,0.00,,,0.01,WeatherCatV1.15B25,2013-04-27 02:31:00,
2013-04-26 22:36:00,42.8,31.1,30.42,NNE,23,0.0,0.0,63,0.00,,,0.01,WeatherCatV1.15B25,2013-04-27 02:36:00,
2013-04-26 22:41:00,42.5,31.2,30.42,NNE,23,0.0,0.0,64,0.00,,,0.01,WeatherCatV1.15B25,2013-04-27 02:41:00,
2013-04-26 22:46:00,42.3,31.8,30.42,NNE,22,0.0,0.0,66,0.00,,,0.01,WeatherCatV1.15B25,2013-04-27 02:46:00,
2013-04-26 22:51:00,42.2,32.4,30.41,NNE,23,0.0,0.0,68,0.00,,,0.01,WeatherCatV1.15B25,2013-04-27 02:51:00,
2013-04-26 22:56:00,42.0,32.2,30.41,NNE,23,0.0,0.0,68,0.00,,,0.01,WeatherCatV1.15B25,2013-04-27 02:56:00,
2013-04-26 23:01:00,41.7,31.9,30.41,NNE,22,0.0,0.0,68,0.00,,,0.01,WeatherCatV1.15B25,2013-04-27 03:01:00,
2013-04-26 23:06:00,41.5,31.7,30.41,NNE,22,0.0,0.0,68,0.00,,,0.01,WeatherCatV1.15B25,2013-04-27 03:06:00,
2013-04-26 23:11:00,41.4,32.4,30.41,NNE,23,0.0,0.0,70,0.00,,,0.01,WeatherCatV1.15B25,2013-04-27 03:11:00,
2013-04-26 23:16:00,41.4,32.7,30.41,NNE,23,0.0,0.0,71,0.00,,,0.01,WeatherCatV1.15B25,2013-04-27 03:16:00,
2013-04-26 23:21:00,41.2,32.5,30.41,NNE,23,0.0,0.0,71,0.00,,,0.01,WeatherCatV1.15B25,2013-04-27 03:21:00,
2013-04-26 23:26:00,41.0,32.7,30.41,NNE,23,0.0,0.0,72,0.00,,,0.01,WeatherCatV1.15B25,2013-04-27 03:26:00,
2013-04-26 23:31:00,40.9,33.3,30.41,NNE,23,0.0,0.0,74,0.00,,,0.01,WeatherCatV1.15B25,2013-04-27 03:31:00,
2013-04-26 23:36:00,40.6,32.3,30.41,NNE,23,0.0,0.0,72,0.00,,,0.01,WeatherCatV1.15B25,2013-04-27 03:36:00,
2013-04-26 23:41:00,40.4,31.8,30.41,NNE,22,0.0,0.0,71,0.00,,,0.01,WeatherCatV1.15B25,2013-04-27 03:41:00,
2013-04-26 23:46:00,40.3,32.0,30.41,NNE,22,0.0,0.0,72,0.00,,,0.01,WeatherCatV1.15B25,2013-04-27 03:46:00,
2013-04-26 23:52:00,40.3,32.0,30.41,NNE,22,0.0,0.0,72,0.00,,,0.01,WeatherCatV1.15B25,2013-04-27 03:52:00,
2013-04-26 23:57:00,40.2,32.6,30.40,NNE,23,0.0,0.0,74,0.00,,,0.01,WeatherCatV1.15B25,2013-04-27 03:57:00,